.
WxDataArchive / Data Records for 2009-01-27
2009-01-26 January 2009 2009-01-28

Data Records for Tuesday, 27 January 2009

Time	Temp	Chill	HIndex	Humid	Dewpt	 Wind 	HiWind	WindDir	Rain 	Barom 
-----	----	-----	------	-----	-----	------	------	-------	-----	----- 
00:00	17.5	17.5	17.5	61	6.4	0	1	315	0.00	30.491 
00:05	17.3	17.3	17.3	61	6.2	0	1	315	0.00	30.493 
00:10	17.3	17.3	17.3	61	6.2	0	1	315	0.00	30.492 
00:15	17.3	17.3	17.3	61	6.2	0	1	315	0.00	30.491 
00:20	17.3	17.3	17.3	62	6.5	0	0	---	0.00	30.483 
00:25	17.3	17.3	17.3	62	6.5	0	0	---	0.00	30.486 
00:30	17.3	17.3	17.3	62	6.5	0	1	315	0.00	30.490 
00:35	17.3	17.3	17.3	62	6.5	0	1	315	0.00	30.494 
00:40	17.3	17.3	17.3	62	6.5	0	1	315	0.00	30.487 
00:45	17.2	17.2	17.2	62	6.4	0	1	315	0.00	30.488 
00:50	17.2	17.2	17.2	62	6.4	0	0	---	0.00	30.487 
00:55	17.2	17.2	17.2	62	6.4	0	0	---	0.00	30.489 
01:00	17.2	17.2	17.2	62	6.4	0	1	315	0.00	30.492 
01:05	17.2	17.2	17.2	62	6.4	0	0	---	0.00	30.490 
01:10	17.2	17.2	17.2	62	6.4	0	0	---	0.00	30.490 
01:15	17.2	17.2	17.2	61	6.1	0	1	315	0.00	30.493 
01:20	17.0	17.0	17.0	60	5.5	0	0	---	0.00	30.490 
01:25	17.0	17.0	17.0	58	4.8	0	1	315	0.00	30.492 
01:30	17.0	17.0	17.0	58	4.8	0	1	315	0.00	30.492 
01:35	17.0	17.0	17.0	56	4.0	0	1	315	0.00	30.489 
01:40	17.0	17.0	17.0	56	4.0	0	1	315	0.00	30.496 
01:45	17.0	17.0	17.0	56	4.0	0	1	315	0.00	30.504 
01:50	17.0	17.0	17.0	56	4.0	0	1	315	0.00	30.502 
01:55	17.0	17.0	17.0	55	3.7	0	1	315	0.00	30.492 
02:00	16.9	16.9	16.9	55	3.6	0	1	315	0.00	30.495 
02:05	16.9	16.9	16.9	54	3.2	0	0	---	0.00	30.492 
02:10	16.9	16.9	16.9	54	3.2	0	0	---	0.00	30.494 
02:15	16.7	16.7	16.7	53	2.6	0	1	315	0.00	30.492 
02:20	16.7	16.7	16.7	52	2.2	0	0	---	0.00	30.497 
02:25	16.5	16.5	16.5	52	2.0	0	1	315	0.00	30.507 
02:30	16.5	16.5	16.5	52	2.0	0	0	---	0.00	30.512 
02:35	16.5	16.5	16.5	52	2.0	0	1	315	0.00	30.515 
02:40	16.5	16.5	16.5	52	2.0	0	0	---	0.00	30.522 
02:45	16.5	16.5	16.5	53	2.4	0	0	---	0.00	30.522 
02:50	16.5	16.5	16.5	53	2.4	0	0	---	0.00	30.519 
02:55	16.5	16.5	16.5	53	2.4	0	0	---	0.00	30.513 
03:00	16.5	16.5	16.5	54	2.8	0	1	315	0.00	30.517 
03:05	16.5	16.5	16.5	54	2.8	0	0	---	0.00	30.524 
03:10	16.5	16.5	16.5	53	2.4	0	0	---	0.00	30.515 
03:15	16.5	16.5	16.5	54	2.8	0	0	---	0.00	30.513 
03:20	16.5	16.5	16.5	54	2.8	0	0	---	0.00	30.522 
03:25	16.5	16.5	16.5	54	2.8	0	0	---	0.00	30.524 
03:30	16.5	16.5	16.5	54	2.8	0	0	---	0.00	30.522 
03:35	16.5	16.5	16.5	54	2.8	0	0	---	0.00	30.526 
03:40	16.5	16.5	16.5	54	2.8	0	0	---	0.00	30.524 
03:45	16.5	16.5	16.5	54	2.8	0	0	---	0.00	30.523 
03:50	16.5	16.5	16.5	54	2.8	0	0	---	0.00	30.518 
03:55	16.4	16.4	16.4	54	2.7	0	0	---	0.00	30.510 
04:00	16.4	16.4	16.4	54	2.7	0	0	---	0.00	30.513 
04:05	16.2	16.2	16.2	55	2.9	0	0	---	0.00	30.511 
04:10	16.2	16.2	16.2	55	2.9	0	0	---	0.00	30.509 
04:15	16.2	16.2	16.2	55	2.9	0	1	315	0.00	30.513 
04:20	16.1	16.1	16.1	55	2.8	0	0	---	0.00	30.523 
04:25	16.1	16.1	16.1	55	2.8	0	0	---	0.00	30.525 
04:30	16.1	16.1	16.1	55	2.8	0	0	---	0.00	30.517 
04:35	16.1	16.1	16.1	56	3.2	0	0	---	0.00	30.518 
04:40	15.9	15.9	15.9	56	3.0	0	0	---	0.00	30.517 
04:45	15.9	15.9	15.9	56	3.0	0	1	315	0.00	30.508 
04:50	15.7	15.7	15.7	56	2.8	0	0	---	0.00	30.506 
04:55	15.6	15.6	15.6	56	2.7	0	0	---	0.00	30.506 
05:00	15.4	15.4	15.4	57	2.9	0	0	---	0.00	30.505 
05:05	15.4	15.4	15.4	57	2.9	0	0	---	0.00	30.506 
05:10	15.2	15.2	15.2	57	2.7	0	0	---	0.00	30.498 
05:15	15.2	15.2	15.2	57	2.7	0	0	---	0.00	30.496 
05:20	15.1	15.1	15.1	58	3.0	0	0	---	0.00	30.495 
05:25	14.9	14.9	14.9	58	2.8	0	0	---	0.00	30.508 
05:30	14.9	14.9	14.9	58	2.8	0	0	---	0.00	30.508 
05:35	14.8	14.8	14.8	58	2.7	0	0	---	0.00	30.512 
05:40	14.6	14.6	14.6	58	2.5	0	0	---	0.00	30.511 
05:45	14.6	14.6	14.6	59	2.9	0	0	---	0.00	30.519 
05:50	14.4	14.4	14.4	59	2.7	0	0	---	0.00	30.514 
05:55	14.4	14.4	14.4	60	3.1	0	0	---	0.00	30.517 
06:00	14.4	14.4	14.4	60	3.1	0	0	---	0.00	30.518 
06:05	14.3	14.3	14.3	60	3.0	0	0	---	0.00	30.514 
06:10	14.3	14.3	14.3	60	3.0	0	0	---	0.00	30.513 
06:15	14.3	14.3	14.3	61	3.3	0	0	---	0.00	30.513 
06:20	14.3	14.3	14.3	61	3.3	0	0	---	0.00	30.515 
06:25	14.1	14.1	14.1	61	3.2	0	0	---	0.00	30.514 
06:30	14.1	14.1	14.1	61	3.2	0	0	---	0.00	30.507 
06:35	14.1	14.1	14.1	62	3.5	0	0	---	0.00	30.507 
06:40	14.1	14.1	14.1	62	3.5	0	0	---	0.00	30.505 
06:45	14.0	14.0	14.0	62	3.4	0	0	---	0.00	30.504 
06:50	14.0	14.0	14.0	62	3.4	0	0	---	0.00	30.498 
06:55	14.0	14.0	14.0	63	3.8	0	0	---	0.00	30.496 
07:00	13.8	13.8	13.8	63	3.6	0	0	---	0.00	30.498 
07:05	13.8	13.8	13.8	63	3.6	0	0	---	0.00	30.500 
07:10	13.8	13.8	13.8	63	3.6	0	0	---	0.00	30.501 
07:15	13.8	13.8	13.8	64	3.9	0	0	---	0.00	30.506 
07:20	13.8	13.8	13.8	64	3.9	0	1	315	0.00	30.498 
07:25	13.8	13.8	13.8	64	3.9	0	0	---	0.00	30.493 
07:30	13.8	13.8	13.8	64	3.9	0	0	---	0.00	30.495 
07:35	14.0	14.0	14.0	63	3.8	0	3	315	0.00	30.496 
07:40	14.1	14.1	14.1	62	3.5	0	3	90	0.00	30.485 
07:45	14.3	14.3	14.3	62	3.7	0	2	90	0.00	30.480 
07:50	14.3	14.3	14.3	63	4.0	0	1	90	0.00	30.480 
07:55	14.1	14.1	14.1	63	3.9	0	1	90	0.00	30.482 
08:00	14.1	14.1	14.1	63	3.9	0	1	90	0.00	30.492 
08:05	14.1	14.1	14.1	63	3.9	0	1	90	0.00	30.494 
08:10	14.1	14.1	14.1	63	3.9	0	1	90	0.00	30.498 
08:15	14.1	14.1	14.1	63	3.9	0	1	90	0.00	30.500 
08:20	14.1	14.1	14.1	63	3.9	0	1	90	0.00	30.501 
08:25	14.1	14.1	14.1	63	3.9	0	2	90	0.00	30.498 
08:30	14.3	14.3	14.3	62	3.7	1	3	90	0.00	30.504 
08:35	14.4	14.4	14.4	62	3.8	0	2	68	0.00	30.508 
08:40	14.6	14.6	14.6	61	3.6	0	3	68	0.00	30.507 
08:45	14.6	14.6	14.6	61	3.6	1	2	68	0.00	30.510 
08:50	14.8	14.8	14.8	61	3.8	1	3	68	0.00	30.506 
08:55	14.9	14.9	14.9	61	3.9	0	2	68	0.00	30.508 
09:00	15.1	15.1	15.1	61	4.1	1	3	68	0.00	30.509 
09:05	15.1	15.1	15.1	61	4.1	0	2	68	0.00	30.502 
09:10	15.1	15.1	15.1	61	4.1	1	3	68	0.00	30.507 
09:15	15.2	15.2	15.2	61	4.2	1	3	68	0.00	30.510 
09:20	15.2	15.2	15.2	61	4.2	1	2	68	0.00	30.507 
09:25	15.4	15.4	15.4	61	4.4	1	3	90	0.00	30.504 
09:30	15.4	15.4	15.4	60	4.0	1	3	90	0.00	30.503 
09:35	15.4	15.4	15.4	59	3.7	2	3	90	0.00	30.506 
09:40	15.6	15.6	15.6	60	4.2	1	4	90	0.00	30.500 
09:45	15.7	15.7	15.7	60	4.3	1	4	90	0.00	30.498 
09:50	15.7	15.7	15.7	60	4.3	2	3	90	0.00	30.495 
09:55	15.9	15.9	15.9	60	4.5	1	3	90	0.00	30.498 
10:00	16.1	16.1	16.1	59	4.3	2	4	112	0.00	30.498 
10:05	16.1	16.1	16.1	60	4.7	2	4	68	0.00	30.496 
10:10	16.2	16.2	16.2	60	4.8	1	3	112	0.00	30.495 
10:15	16.2	16.2	16.2	61	5.1	0	3	112	0.00	30.484 
10:20	16.4	16.4	16.4	61	5.3	1	3	112	0.00	30.483 
10:25	16.4	16.4	16.4	61	5.3	2	4	112	0.00	30.481 
10:30	16.5	16.5	16.5	61	5.4	1	3	90	0.00	30.481 
10:35	16.9	16.9	16.9	61	5.8	2	4	112	0.00	30.477 
10:40	17.2	17.2	17.2	62	6.4	1	4	68	0.00	30.468 
10:45	17.3	17.3	17.3	62	6.5	2	4	112	0.00	30.468 
10:50	17.5	17.5	17.5	62	6.7	2	5	90	0.00	30.470 
10:55	17.5	17.5	17.5	63	7.1	3	5	112	0.00	30.476 
11:00	17.8	17.8	17.8	64	7.7	2	5	90	0.00	30.475 
11:05	18.1	18.1	18.1	65	8.3	3	7	90	0.00	30.476 
11:10	18.3	18.3	18.3	65	8.5	3	6	112	0.00	30.468 
11:15	18.4	18.4	18.4	66	9.0	2	4	90	0.00	30.475 
11:20	18.8	18.8	18.8	66	9.4	2	5	112	0.00	30.475 
11:25	19.1	19.1	19.1	66	9.6	2	6	112	0.00	30.483 
11:30	19.2	19.2	19.2	67	10.1	2	5	112	0.00	30.477 
11:35	19.4	19.4	19.4	67	10.3	2	6	90	0.00	30.474 
11:40	19.5	19.5	19.5	67	10.4	2	4	90	0.00	30.470 
11:45	19.7	19.7	19.7	67	10.5	2	4	90	0.00	30.458 
11:50	19.9	19.9	19.9	67	10.7	3	9	90	0.00	30.450 
11:55	19.5	13.6	19.5	67	10.4	4	9	112	0.00	30.432 
12:00	19.4	19.4	19.4	69	10.9	3	9	112	0.00	30.430 
12:05	19.5	19.5	19.5	69	11.0	2	6	90	0.00	30.433 
12:10	19.4	13.5	19.4	69	10.9	4	6	112	0.00	30.434 
12:15	19.7	19.7	19.7	70	11.5	2	6	112	0.00	30.436 
12:20	19.9	14.1	19.9	69	11.4	4	7	90	0.00	30.432 
12:25	19.9	19.9	19.9	71	12.0	2	6	112	0.00	30.430 
12:30	19.9	19.9	19.9	70	11.7	2	6	112	0.00	30.432 
12:35	20.0	20.0	20.0	70	11.8	3	6	112	0.00	30.428 
12:40	20.2	20.2	20.2	70	12.0	2	4	90	0.00	30.431 
12:45	20.2	20.2	20.2	69	11.7	3	6	90	0.00	30.428 
12:50	20.3	20.3	20.3	70	12.1	2	6	112	0.00	30.415 
12:55	20.5	20.5	20.5	70	12.3	2	4	112	0.00	30.425 
13:00	20.5	20.5	20.5	68	11.6	2	4	68	0.00	30.413 
13:05	20.5	20.5	20.5	69	12.0	2	6	90	0.00	30.411 
13:10	20.5	20.5	20.5	69	12.0	2	9	112	0.00	30.405 
13:15	20.3	20.3	20.3	68	11.5	3	8	112	0.00	30.396 
13:20	20.3	20.3	20.3	69	11.8	2	6	90	0.00	30.398 
13:25	20.3	20.3	20.3	68	11.5	2	5	112	0.00	30.395 
13:30	20.3	20.3	20.3	68	11.5	3	9	112	0.00	30.382 
13:35	20.2	20.2	20.2	68	11.4	3	7	112	0.00	30.376 
13:40	20.2	20.2	20.2	68	11.4	2	7	90	0.00	30.379 
13:45	20.3	20.3	20.3	68	11.5	2	5	112	0.00	30.375 
13:50	20.2	20.2	20.2	67	11.0	3	7	90	0.00	30.367 
13:55	20.2	20.2	20.2	67	11.0	2	6	90	0.00	30.369 
14:00	20.3	20.3	20.3	67	11.1	3	6	112	0.00	30.372 
14:05	20.2	14.4	20.2	66	10.7	4	9	112	0.00	30.361 
14:10	20.2	20.2	20.2	66	10.7	3	9	90	0.00	30.359 
14:15	20.3	20.3	20.3	66	10.8	3	8	90	0.00	30.360 
14:20	20.3	20.3	20.3	66	10.8	3	11	112	0.00	30.364 
14:25	20.3	20.3	20.3	66	10.8	3	6	90	0.00	30.365 
14:30	20.3	20.3	20.3	66	10.8	2	7	112	0.00	30.365 
14:35	20.5	20.5	20.5	66	11.0	1	4	112	0.00	30.366 
14:40	20.5	20.5	20.5	65	10.6	3	5	112	0.00	30.361 
14:45	20.5	20.5	20.5	66	11.0	2	6	112	0.00	30.353 
14:50	20.5	20.5	20.5	66	11.0	1	4	112	0.00	30.350 
14:55	20.5	20.5	20.5	67	11.3	3	6	112	0.00	30.335 
15:00	20.5	20.5	20.5	67	11.3	1	4	112	0.00	30.351 
15:05	20.5	20.5	20.5	68	11.6	2	5	112	0.00	30.355 
15:10	20.5	20.5	20.5	68	11.6	1	4	90	0.00	30.354 
15:15	20.6	20.6	20.6	68	11.7	1	3	90	0.00	30.345 
15:20	20.6	20.6	20.6	68	11.7	1	5	45	0.00	30.350 
15:25	20.5	20.5	20.5	68	11.6	1	6	112	0.00	30.345 
15:30	20.5	20.5	20.5	68	11.6	1	5	90	0.00	30.345 
15:35	20.5	20.5	20.5	69	12.0	1	5	90	0.00	30.340 
15:40	20.3	20.3	20.3	69	11.8	3	7	112	0.00	30.334 
15:45	20.2	20.2	20.2	69	11.7	2	7	90	0.00	30.336 
15:50	20.2	20.2	20.2	70	12.0	1	4	90	0.00	30.341 
15:55	20.2	20.2	20.2	70	12.0	1	4	90	0.00	30.336 
16:00	20.2	20.2	20.2	70	12.0	1	5	90	0.00	30.334 
16:05	20.2	20.2	20.2	70	12.0	1	4	68	0.00	30.338 
16:10	20.2	20.2	20.2	70	12.0	1	5	112	0.00	30.331 
16:15	20.2	20.2	20.2	69	11.7	2	6	90	0.00	30.336 
16:20	20.2	20.2	20.2	69	11.7	1	5	90	0.00	30.336 
16:25	20.0	20.0	20.0	70	11.8	1	4	90	0.00	30.328 
16:30	20.0	20.0	20.0	72	12.5	2	6	112	0.00	30.322 
16:35	19.9	19.9	19.9	73	12.7	3	7	112	0.00	30.319 
16:40	19.7	19.7	19.7	75	13.1	2	6	90	0.00	30.317 
16:45	19.5	19.5	19.5	77	13.5	2	7	90	0.00	30.310 
16:50	19.4	19.4	19.4	78	13.7	1	5	90	0.00	30.314 
16:55	19.4	19.4	19.4	79	14.0	1	4	45	0.00	30.320 
17:00	19.4	19.4	19.4	80	14.3	2	5	112	0.00	30.310 
17:05	19.2	19.2	19.2	81	14.3	2	6	112	0.00	30.308 
17:10	19.2	19.2	19.2	81	14.3	1	5	112	0.00	30.307 
17:15	19.1	19.1	19.1	82	14.5	2	7	90	0.00	30.306 
17:20	18.9	18.9	18.9	83	14.6	1	6	112	0.00	30.296 
17:25	18.9	18.9	18.9	83	14.6	2	7	112	0.00	30.302 
17:30	18.8	18.8	18.8	84	14.8	1	5	90	0.00	30.296 
17:35	18.8	18.8	18.8	84	14.8	2	6	90	0.00	30.293 
17:40	18.8	18.8	18.8	84	14.8	1	3	112	0.00	30.300 
17:45	18.8	18.8	18.8	84	14.8	2	4	112	0.00	30.300 
17:50	18.8	18.8	18.8	84	14.8	1	3	112	0.00	30.292 
17:55	18.8	18.8	18.8	85	15.1	2	5	112	0.00	30.294 
18:00	18.8	18.8	18.8	85	15.1	2	5	90	0.00	30.288 
18:05	18.6	18.6	18.6	85	14.9	2	5	90	0.00	30.287 
18:10	18.6	18.6	18.6	85	14.9	2	12	90	0.00	30.290 
18:15	18.6	18.6	18.6	85	14.9	2	5	90	0.00	30.291 
18:20	18.4	18.4	18.4	85	14.7	1	5	90	0.00	30.289 
18:25	18.4	18.4	18.4	85	14.7	1	7	90	0.00	30.289 
18:30	18.4	18.4	18.4	85	14.7	1	3	90	0.00	30.281 
18:35	18.4	18.4	18.4	85	14.7	1	6	90	0.00	30.280 
18:40	18.4	18.4	18.4	85	14.7	2	6	90	0.00	30.275 
18:45	18.3	18.3	18.3	85	14.6	2	4	90	0.00	30.263 
18:50	18.3	18.3	18.3	85	14.6	1	3	112	0.00	30.267 
18:55	18.3	18.3	18.3	85	14.6	1	4	45	0.00	30.275 
19:00	18.3	18.3	18.3	85	14.6	1	4	90	0.00	30.273 
19:05	18.1	18.1	18.1	85	14.4	1	4	112	0.00	30.270 
19:10	18.1	18.1	18.1	85	14.4	1	4	112	0.00	30.261 
19:15	18.1	18.1	18.1	85	14.4	1	3	135	0.00	30.260 
19:20	18.1	18.1	18.1	85	14.4	1	4	90	0.00	30.259 
19:25	18.1	18.1	18.1	85	14.4	1	5	90	0.00	30.252 
19:30	18.1	18.1	18.1	86	14.6	1	5	90	0.00	30.249 
19:35	18.1	18.1	18.1	86	14.6	1	4	112	0.00	30.254 
19:40	18.1	18.1	18.1	86	14.6	1	3	112	0.00	30.252 
19:45	18.1	18.1	18.1	86	14.6	1	4	90	0.00	30.250 
19:50	18.1	18.1	18.1	86	14.6	1	4	112	0.00	30.250 
19:55	18.1	18.1	18.1	86	14.6	1	4	90	0.00	30.244 
20:00	18.1	18.1	18.1	86	14.6	1	3	112	0.00	30.244 
20:05	18.1	18.1	18.1	86	14.6	1	6	112	0.00	30.242 
20:10	18.1	18.1	18.1	86	14.6	1	3	90	0.00	30.243 
20:15	18.1	18.1	18.1	86	14.6	1	4	112	0.00	30.239 
20:20	18.1	18.1	18.1	86	14.6	1	3	112	0.00	30.231 
20:25	18.3	18.3	18.3	87	15.1	1	4	112	0.00	30.227 
20:30	18.3	18.3	18.3	87	15.1	1	3	112	0.00	30.221 
20:35	18.3	18.3	18.3	87	15.1	1	4	112	0.00	30.220 
20:40	18.3	18.3	18.3	87	15.1	1	2	45	0.00	30.223 
20:45	18.3	18.3	18.3	87	15.1	1	3	112	0.00	30.211 
20:50	18.3	18.3	18.3	87	15.1	1	3	90	0.00	30.207 
20:55	18.3	18.3	18.3	87	15.1	1	3	90	0.00	30.198 
21:00	18.3	18.3	18.3	87	15.1	1	7	90	0.00	30.195 
21:05	18.3	18.3	18.3	87	15.1	2	4	90	0.00	30.181 
21:10	18.3	18.3	18.3	87	15.1	1	3	90	0.00	30.179 
21:15	18.3	18.3	18.3	87	15.1	3	8	90	0.00	30.177 
21:20	18.3	18.3	18.3	87	15.1	1	4	90	0.00	30.175 
21:25	18.3	18.3	18.3	87	15.1	2	5	112	0.00	30.174 
21:30	18.3	18.3	18.3	87	15.1	1	5	90	0.00	30.163 
21:35	18.4	18.4	18.4	87	15.2	2	5	90	0.00	30.163 
21:40	18.4	18.4	18.4	87	15.2	1	3	112	0.00	30.158 
21:45	18.4	18.4	18.4	87	15.2	1	4	112	0.00	30.158 
21:50	18.4	18.4	18.4	87	15.2	1	5	112	0.00	30.163 
21:55	18.4	18.4	18.4	87	15.2	1	6	90	0.00	30.159 
22:00	18.4	18.4	18.4	87	15.2	0	3	112	0.00	30.160 
22:05	18.4	18.4	18.4	88	15.5	1	3	90	0.00	30.148 
22:10	18.4	18.4	18.4	88	15.5	1	4	112	0.00	30.144 
22:15	18.4	18.4	18.4	88	15.5	1	5	90	0.00	30.143 
22:20	18.4	18.4	18.4	88	15.5	0	3	90	0.00	30.153 
22:25	18.4	18.4	18.4	88	15.5	1	3	112	0.00	30.154 
22:30	18.4	18.4	18.4	88	15.5	0	1	112	0.00	30.148 
22:35	18.4	18.4	18.4	88	15.5	0	3	90	0.00	30.145 
22:40	18.4	18.4	18.4	88	15.5	1	2	90	0.00	30.137 
22:45	18.4	18.4	18.4	88	15.5	0	2	90	0.00	30.133 
22:50	18.4	18.4	18.4	88	15.5	0	2	90	0.00	30.132 
22:55	18.4	18.4	18.4	88	15.5	1	4	90	0.00	30.126 
23:00	18.4	18.4	18.4	88	15.5	0	3	90	0.00	30.128 
23:05	18.4	18.4	18.4	88	15.5	1	3	90	0.00	30.127 
23:10	18.4	18.4	18.4	88	15.5	1	4	45	0.00	30.122 
23:15	18.4	18.4	18.4	88	15.5	0	3	68	0.00	30.115 
23:20	18.4	18.4	18.4	88	15.5	0	3	22	0.00	30.115 
23:25	18.3	18.3	18.3	88	15.4	1	3	90	0.00	30.114 
23:30	18.3	18.3	18.3	88	15.4	0	2	90	0.00	30.112 
23:35	18.3	18.3	18.3	88	15.4	1	3	90	0.00	30.111 
23:40	18.3	18.3	18.3	88	15.4	1	2	90	0.00	30.109 
23:45	18.3	18.3	18.3	88	15.4	1	4	45	0.00	30.103 
23:50	18.3	18.3	18.3	88	15.4	0	2	45	0.00	30.099 
23:55	18.3	18.3	18.3	88	15.4	1	3	45	0.00	30.098 

CoCoRaHS
IN-AL-39
A2 Web Hosting
Creative Commons License
GoDaddy
search engine by freefind advanced

loaded 2018-11-19 19:16:15 • last modified 2010-11-18 10:43:29
Privacy PolicyDisclaimer
• wx.awcolley.com is powered by PmWiki v.2002016 •
• all content (unless otherwise noted) © 2018 A W Colley